createdAt,value
2022-09-14T00:00:20.071Z,18.79
2022-09-14T00:01:27.470Z,18.79
2022-09-14T00:02:21.233Z,18.79
2022-09-14T00:03:20.150Z,18.79
2022-09-14T00:04:20.015Z,18.80
2022-09-14T00:05:20.001Z,18.79
2022-09-14T00:06:19.989Z,18.79
2022-09-14T00:07:19.974Z,18.80
2022-09-14T00:08:19.963Z,18.77
2022-09-14T00:09:19.951Z,18.79
2022-09-14T00:10:19.937Z,18.79
2022-09-14T00:11:19.921Z,18.80
2022-09-14T00:12:19.909Z,18.79
2022-09-14T00:13:19.895Z,18.79
2022-09-14T00:14:19.883Z,18.79
2022-09-14T00:15:19.868Z,18.79
2022-09-14T00:16:19.935Z,18.77
2022-09-14T00:17:19.881Z,18.79
2022-09-14T00:18:19.832Z,18.79
2022-09-14T00:19:19.816Z,18.77
2022-09-14T00:20:19.808Z,18.77
2022-09-14T00:21:19.791Z,18.77
2022-09-14T00:22:19.780Z,18.77
2022-09-14T00:23:19.767Z,18.77
2022-09-14T00:24:19.754Z,18.79
2022-09-14T00:25:19.740Z,18.79
2022-09-14T00:26:19.730Z,18.79
2022-09-14T00:27:19.716Z,18.79
2022-09-14T00:28:19.703Z,18.79
2022-09-14T00:29:19.688Z,18.77
2022-09-14T00:30:19.678Z,18.77
2022-09-14T00:31:19.738Z,18.79
2022-09-14T00:32:19.663Z,18.77
2022-09-14T00:33:19.748Z,18.77
2022-09-14T00:34:19.628Z,18.77
2022-09-14T00:35:19.610Z,18.77
2022-09-14T00:36:19.601Z,18.77
2022-09-14T00:37:19.585Z,18.77
2022-09-14T00:38:19.573Z,18.77
2022-09-14T00:39:19.560Z,18.77
2022-09-14T00:40:19.614Z,18.77
2022-09-14T00:41:19.532Z,18.77
2022-09-14T00:42:19.538Z,18.77
2022-09-14T00:43:19.508Z,18.77
2022-09-14T00:44:19.495Z,18.76
2022-09-14T00:45:19.481Z,18.74
2022-09-14T00:46:19.472Z,18.77
2022-09-14T00:47:19.455Z,18.74
2022-09-14T00:48:19.443Z,18.77
2022-09-14T00:49:19.454Z,18.77
2022-09-14T00:50:19.418Z,18.76
2022-09-14T00:51:19.406Z,18.76
2022-09-14T00:52:19.391Z,18.76
2022-09-14T00:53:19.382Z,18.77
2022-09-14T00:54:19.364Z,18.76
2022-09-14T00:55:19.350Z,18.76
2022-09-14T00:56:19.338Z,18.76
2022-09-14T00:57:19.322Z,18.77
2022-09-14T00:58:19.311Z,18.77
2022-09-14T00:59:19.297Z,18.76
2022-09-14T01:00:19.284Z,18.74
2022-09-14T01:01:19.368Z,18.73
2022-09-14T01:02:19.331Z,18.74
2022-09-14T01:03:19.243Z,18.76
2022-09-14T01:04:19.230Z,18.74
2022-09-14T01:05:19.332Z,18.74
2022-09-14T01:06:19.203Z,18.76
2022-09-14T01:07:19.188Z,18.73
2022-09-14T01:08:19.180Z,18.74
2022-09-14T01:09:19.161Z,18.74
2022-09-14T01:10:19.157Z,18.73
2022-09-14T01:11:19.135Z,18.73
2022-09-14T01:12:19.123Z,18.72
2022-09-14T01:13:19.107Z,18.73
2022-09-14T01:14:19.098Z,18.73
2022-09-14T01:15:19.081Z,18.74
2022-09-14T01:16:19.154Z,18.74
2022-09-14T01:17:19.057Z,18.74
2022-09-14T01:18:19.046Z,18.73
2022-09-14T01:19:19.032Z,18.74
2022-09-14T01:20:19.021Z,18.72
2022-09-14T01:21:19.115Z,18.73
2022-09-14T01:22:18.994Z,18.73
2022-09-14T01:23:18.979Z,18.72
2022-09-14T01:24:18.967Z,18.72
2022-09-14T01:25:18.952Z,18.73
2022-09-14T01:26:18.941Z,18.72
2022-09-14T01:27:18.924Z,18.72
2022-09-14T01:28:18.912Z,18.72
2022-09-14T01:29:18.897Z,18.72
2022-09-14T01:30:18.888Z,18.72
2022-09-14T01:31:18.925Z,18.70
2022-09-14T01:32:18.858Z,18.72
2022-09-14T01:33:18.843Z,18.72
2022-09-14T01:34:18.833Z,18.70
2022-09-14T01:35:18.820Z,18.72
2022-09-14T01:36:18.811Z,18.70
2022-09-14T01:37:18.901Z,18.70
2022-09-14T01:38:18.780Z,18.70
2022-09-14T01:39:18.767Z,18.70
2022-09-14T01:40:18.903Z,18.72
2022-09-14T01:41:18.741Z,18.72
2022-09-14T01:42:18.729Z,18.72
2022-09-14T01:43:18.715Z,18.70
2022-09-14T01:44:18.703Z,18.70
2022-09-14T01:45:18.723Z,18.72
2022-09-14T01:46:18.678Z,18.70
2022-09-14T01:47:18.665Z,18.70
2022-09-14T01:48:18.652Z,18.68
2022-09-14T01:49:18.639Z,18.70
2022-09-14T01:50:18.628Z,18.70
2022-09-14T01:51:18.612Z,18.68
2022-09-14T01:52:18.599Z,18.70
2022-09-14T01:53:18.609Z,18.68
2022-09-14T01:54:18.572Z,18.70
2022-09-14T01:55:18.559Z,18.68
2022-09-14T01:56:18.548Z,18.68
2022-09-14T01:57:18.534Z,18.68
2022-09-14T01:58:18.523Z,18.68
2022-09-14T01:59:18.509Z,18.67
2022-09-14T02:00:18.494Z,18.68
2022-09-14T02:01:18.585Z,18.67
2022-09-14T02:02:18.603Z,18.68
2022-09-14T02:03:18.453Z,18.70
2022-09-14T02:04:18.442Z,18.68
2022-09-14T02:05:18.434Z,18.68
2022-09-14T02:06:18.419Z,18.67
2022-09-14T02:07:18.402Z,18.67
2022-09-14T02:08:18.390Z,18.67
2022-09-14T02:09:18.397Z,18.67
2022-09-14T02:10:18.366Z,18.67
2022-09-14T02:11:18.349Z,18.67
2022-09-14T02:12:18.337Z,18.67
2022-09-14T02:13:18.324Z,18.65
2022-09-14T02:14:24.316Z,18.65
2022-09-14T02:15:18.296Z,18.67
2022-09-14T02:16:18.369Z,18.67
2022-09-14T02:17:18.270Z,18.65
2022-09-14T02:18:18.258Z,18.67
2022-09-14T02:19:23.082Z,18.65
2022-09-14T02:20:18.232Z,18.65
2022-09-14T02:21:18.217Z,18.67
2022-09-14T02:22:18.203Z,18.65
2022-09-14T02:23:18.188Z,18.68
2022-09-14T02:24:18.177Z,18.67
2022-09-14T02:25:18.186Z,18.67
2022-09-14T02:26:18.152Z,18.67
2022-09-14T02:27:18.137Z,18.67
2022-09-14T02:28:18.126Z,18.67
2022-09-14T02:29:18.112Z,18.65
2022-09-14T02:30:18.099Z,18.68
2022-09-14T02:31:18.174Z,18.68
2022-09-14T02:32:18.075Z,18.67
2022-09-14T02:33:18.059Z,18.68
2022-09-14T02:34:18.049Z,18.65
2022-09-14T02:35:18.033Z,18.67
2022-09-14T02:36:18.021Z,18.65
2022-09-14T02:37:18.007Z,18.67
2022-09-14T02:38:17.995Z,18.67
2022-09-14T02:39:17.986Z,18.67
2022-09-14T02:40:18.069Z,18.65
2022-09-14T02:41:18.043Z,18.65
2022-09-14T02:42:17.944Z,18.65
2022-09-14T02:43:17.926Z,18.67
2022-09-14T02:44:17.917Z,18.67
2022-09-14T02:45:17.901Z,18.65
2022-09-14T02:46:17.946Z,18.68
2022-09-14T02:47:17.876Z,18.67
2022-09-14T02:48:17.864Z,18.65
2022-09-14T02:49:17.849Z,18.65
2022-09-14T02:50:17.837Z,18.65
2022-09-14T02:51:17.822Z,18.65
2022-09-14T02:52:17.814Z,18.65
2022-09-14T02:53:17.799Z,18.65
2022-09-14T02:54:17.786Z,18.65
2022-09-14T02:55:17.773Z,18.64
2022-09-14T02:56:17.762Z,18.67
2022-09-14T02:57:17.771Z,18.64
2022-09-14T02:58:17.741Z,18.65
2022-09-14T02:59:17.730Z,18.67
2022-09-14T03:00:17.711Z,18.65
2022-09-14T03:01:17.747Z,18.65
2022-09-14T03:02:17.736Z,18.65
2022-09-14T03:03:17.671Z,18.65
2022-09-14T03:04:17.659Z,18.67
2022-09-14T03:05:17.645Z,18.65
2022-09-14T03:06:17.633Z,18.67
2022-09-14T03:07:17.620Z,18.65
2022-09-14T03:08:17.610Z,18.65
2022-09-14T03:09:17.594Z,18.65
2022-09-14T03:10:17.582Z,18.65
2022-09-14T03:11:17.569Z,18.65
2022-09-14T03:12:17.557Z,18.65
2022-09-14T03:13:17.655Z,18.65
2022-09-14T03:14:17.533Z,18.65
2022-09-14T03:15:17.518Z,18.65
2022-09-14T03:16:17.589Z,18.65
2022-09-14T03:17:17.494Z,18.65
2022-09-14T03:18:17.484Z,18.65
2022-09-14T03:19:17.467Z,18.65
2022-09-14T03:20:17.457Z,18.64
2022-09-14T03:21:17.444Z,18.65
2022-09-14T03:22:17.434Z,18.64
2022-09-14T03:23:17.424Z,18.65
2022-09-14T03:24:17.405Z,18.64
2022-09-14T03:25:17.392Z,18.64
2022-09-14T03:26:17.380Z,18.65
2022-09-14T03:27:17.366Z,18.64
2022-09-14T03:28:17.355Z,18.64
2022-09-14T03:29:17.366Z,18.65
2022-09-14T03:30:17.330Z,18.64
2022-09-14T03:31:17.398Z,18.65
2022-09-14T03:32:17.304Z,18.64
2022-09-14T03:33:17.292Z,18.65
2022-09-14T03:34:17.278Z,18.64
2022-09-14T03:35:17.264Z,18.62
2022-09-14T03:36:17.271Z,18.64
2022-09-14T03:37:17.241Z,18.64
2022-09-14T03:38:17.229Z,18.64
2022-09-14T03:39:17.212Z,18.64
2022-09-14T03:40:21.706Z,18.65
2022-09-14T03:41:17.187Z,18.62
2022-09-14T03:42:17.176Z,18.64
2022-09-14T03:43:17.162Z,18.61
2022-09-14T03:44:17.150Z,18.62
2022-09-14T03:45:17.160Z,18.62
2022-09-14T03:46:17.213Z,18.64
2022-09-14T03:47:17.113Z,18.64
2022-09-14T03:48:17.102Z,18.62
2022-09-14T03:49:17.086Z,18.62
2022-09-14T03:50:17.074Z,18.64
2022-09-14T03:51:17.063Z,18.62
2022-09-14T03:52:17.050Z,18.64
2022-09-14T03:53:17.037Z,18.61
2022-09-14T03:54:17.027Z,18.61
2022-09-14T03:55:17.011Z,18.62
2022-09-14T03:56:16.999Z,18.64
2022-09-14T03:57:16.986Z,18.62
2022-09-14T03:58:16.975Z,18.61
2022-09-14T03:59:16.960Z,18.61
2022-09-14T04:00:16.952Z,18.62
2022-09-14T04:01:17.088Z,18.62
2022-09-14T04:02:17.028Z,18.61
2022-09-14T04:03:17.031Z,18.62
2022-09-14T04:04:16.897Z,18.61
2022-09-14T04:05:21.603Z,18.62
2022-09-14T04:06:16.872Z,18.59
2022-09-14T04:07:16.861Z,18.61
2022-09-14T04:08:16.848Z,18.61
2022-09-14T04:09:16.834Z,18.61
2022-09-14T04:10:16.820Z,18.61
2022-09-14T04:11:16.829Z,18.62
2022-09-14T04:12:16.796Z,18.61
2022-09-14T04:13:16.780Z,18.59
2022-09-14T04:14:16.769Z,18.61
2022-09-14T04:15:16.758Z,18.61
2022-09-14T04:16:16.819Z,18.61
2022-09-14T04:17:16.752Z,18.59
2022-09-14T04:18:16.714Z,18.59
2022-09-14T04:19:16.702Z,18.61
2022-09-14T04:20:16.688Z,18.61
2022-09-14T04:21:16.676Z,18.61
2022-09-14T04:22:16.661Z,18.59
2022-09-14T04:23:16.650Z,18.61
2022-09-14T04:24:16.879Z,18.59
2022-09-14T04:25:16.627Z,18.59
2022-09-14T04:26:16.625Z,18.58
2022-09-14T04:27:16.601Z,18.59
2022-09-14T04:28:20.569Z,18.57
2022-09-14T04:29:16.579Z,18.58
2022-09-14T04:30:16.566Z,18.58
2022-09-14T04:31:16.662Z,18.58
2022-09-14T04:32:16.537Z,18.57
2022-09-14T04:33:16.636Z,18.57
2022-09-14T04:34:16.514Z,18.57
2022-09-14T04:35:16.500Z,18.57
2022-09-14T04:36:16.486Z,18.57
2022-09-14T04:37:16.483Z,18.58
2022-09-14T04:38:16.486Z,18.57
2022-09-14T04:39:16.469Z,18.57
2022-09-14T04:40:16.492Z,18.57
2022-09-14T04:41:16.436Z,18.58
2022-09-14T04:42:16.413Z,18.57
2022-09-14T04:43:16.451Z,18.57
2022-09-14T04:44:16.425Z,18.58
2022-09-14T04:45:16.376Z,18.58
2022-09-14T04:46:16.465Z,18.57
2022-09-14T04:47:16.374Z,18.57
2022-09-14T04:48:16.338Z,18.57
2022-09-14T04:49:16.391Z,18.58
2022-09-14T04:50:16.333Z,18.55
2022-09-14T04:51:16.310Z,18.55
2022-09-14T04:52:16.285Z,18.57
2022-09-14T04:53:16.298Z,18.57
2022-09-14T04:54:16.264Z,18.55
2022-09-14T04:55:16.287Z,18.57
2022-09-14T04:56:16.242Z,18.57
2022-09-14T04:57:16.250Z,18.57
2022-09-14T04:58:16.208Z,18.57
2022-09-14T04:59:16.200Z,18.55
2022-09-14T05:00:16.185Z,18.57
2022-09-14T05:01:16.172Z,18.58
2022-09-14T05:02:16.274Z,18.57
2022-09-14T05:03:16.270Z,18.57
2022-09-14T05:04:16.140Z,18.57
2022-09-14T05:05:16.142Z,18.55
2022-09-14T05:06:16.131Z,18.57
2022-09-14T05:07:16.131Z,18.55
2022-09-14T05:08:16.078Z,18.55
2022-09-14T05:09:16.068Z,18.55
2022-09-14T05:10:16.052Z,18.55
2022-09-14T05:11:16.043Z,18.55
2022-09-14T05:12:16.029Z,18.55
2022-09-14T05:13:16.017Z,18.55
2022-09-14T05:14:16.006Z,18.55
2022-09-14T05:15:15.991Z,18.54
2022-09-14T05:16:16.180Z,18.55
2022-09-14T05:17:15.967Z,18.55
2022-09-14T05:18:15.953Z,18.55
2022-09-14T05:19:15.938Z,18.54
2022-09-14T05:20:15.928Z,18.55
2022-09-14T05:21:16.032Z,18.55
2022-09-14T05:22:15.901Z,18.55
2022-09-14T05:23:15.889Z,18.55
2022-09-14T05:24:15.874Z,18.54
2022-09-14T05:25:15.864Z,18.54
2022-09-14T05:26:15.849Z,18.54
2022-09-14T05:27:15.838Z,18.54
2022-09-14T05:28:15.826Z,18.55
2022-09-14T05:29:15.812Z,18.54
2022-09-14T05:30:15.801Z,18.54
2022-09-14T05:31:15.846Z,18.54
2022-09-14T05:32:15.773Z,18.54
2022-09-14T05:33:15.761Z,18.54
2022-09-14T05:34:15.748Z,18.54
2022-09-14T05:35:15.737Z,18.55
2022-09-14T05:36:15.721Z,18.55
2022-09-14T05:37:15.798Z,18.54
2022-09-14T05:38:15.694Z,18.54
2022-09-14T05:39:18.766Z,18.52
2022-09-14T05:40:15.726Z,18.54
2022-09-14T05:41:15.658Z,18.54
2022-09-14T05:42:15.644Z,18.55
2022-09-14T05:43:15.631Z,18.52
2022-09-14T05:44:15.618Z,18.55
2022-09-14T05:45:15.709Z,18.54
2022-09-14T05:46:15.719Z,18.54
2022-09-14T05:47:15.593Z,18.54
2022-09-14T05:48:15.597Z,18.55
2022-09-14T05:49:15.562Z,18.54
2022-09-14T05:50:15.540Z,18.54
2022-09-14T05:51:15.529Z,18.55
2022-09-14T05:52:15.525Z,18.55
2022-09-14T05:53:15.622Z,18.55
2022-09-14T05:54:15.496Z,18.54
2022-09-14T05:55:15.479Z,18.55
2022-09-14T05:56:15.490Z,18.55
2022-09-14T05:57:15.475Z,18.57
2022-09-14T05:58:15.441Z,18.55
2022-09-14T05:59:15.444Z,18.55
2022-09-14T06:00:15.413Z,18.54
2022-09-14T06:01:15.400Z,18.54
2022-09-14T06:02:18.152Z,18.54
2022-09-14T06:03:15.369Z,18.54
2022-09-14T06:04:15.355Z,18.55
2022-09-14T06:05:15.417Z,18.54
2022-09-14T06:06:15.333Z,18.55
2022-09-14T06:07:18.884Z,18.54
2022-09-14T06:08:15.309Z,18.55
2022-09-14T06:09:15.317Z,18.54
2022-09-14T06:10:15.297Z,18.55
2022-09-14T06:11:15.277Z,18.55
2022-09-14T06:12:15.256Z,18.54
2022-09-14T06:13:15.302Z,18.54
2022-09-14T06:14:15.229Z,18.52
2022-09-14T06:15:15.280Z,18.54
2022-09-14T06:16:15.268Z,18.54
2022-09-14T06:17:15.232Z,18.54
2022-09-14T06:18:15.193Z,18.54
2022-09-14T06:19:15.165Z,18.54
2022-09-14T06:20:15.157Z,18.55
2022-09-14T06:21:15.142Z,18.54
2022-09-14T06:22:15.120Z,18.54
2022-09-14T06:23:15.115Z,18.55
2022-09-14T06:24:15.095Z,18.54
2022-09-14T06:25:15.160Z,18.54
2022-09-14T06:26:15.067Z,18.54
2022-09-14T06:27:15.201Z,18.54
2022-09-14T06:28:15.109Z,18.52
2022-09-14T06:29:15.062Z,18.52
2022-09-14T06:30:15.075Z,18.52
2022-09-14T06:31:15.057Z,18.52
2022-09-14T06:32:15.013Z,18.54
2022-09-14T06:33:15.010Z,18.52
2022-09-14T06:34:14.973Z,18.52
2022-09-14T06:35:14.979Z,18.54
2022-09-14T06:36:14.938Z,18.52
2022-09-14T06:37:14.926Z,18.50
2022-09-14T06:38:14.915Z,18.52
2022-09-14T06:39:14.978Z,18.54
2022-09-14T06:40:15.005Z,18.52
2022-09-14T06:41:14.902Z,18.50
2022-09-14T06:42:14.874Z,18.52
2022-09-14T06:43:14.853Z,18.54
2022-09-14T06:44:14.904Z,18.52
2022-09-14T06:45:14.821Z,18.52
2022-09-14T06:46:14.826Z,18.54
2022-09-14T06:47:14.797Z,18.54
2022-09-14T06:48:14.783Z,18.52
2022-09-14T06:49:14.771Z,18.52
2022-09-14T06:50:14.756Z,18.52
2022-09-14T06:51:14.745Z,18.54
2022-09-14T06:52:14.731Z,18.54
2022-09-14T06:53:14.719Z,18.52
2022-09-14T06:54:14.712Z,18.52
2022-09-14T06:55:14.701Z,18.52
2022-09-14T06:56:14.691Z,18.52
2022-09-14T06:57:14.694Z,18.54
2022-09-14T06:58:14.659Z,18.52
2022-09-14T06:59:14.681Z,18.54
2022-09-14T07:00:14.651Z,18.52
2022-09-14T07:01:14.619Z,18.52
2022-09-14T07:02:14.703Z,18.52
2022-09-14T07:03:14.681Z,18.54
2022-09-14T07:04:14.576Z,18.55
2022-09-14T07:05:14.575Z,18.52
2022-09-14T07:06:14.583Z,18.54
2022-09-14T07:07:14.591Z,18.55
2022-09-14T07:08:14.544Z,18.54
2022-09-14T07:09:14.510Z,18.54
2022-09-14T07:10:14.496Z,18.54
2022-09-14T07:11:14.483Z,18.55
2022-09-14T07:12:14.467Z,18.55
2022-09-14T07:13:14.488Z,18.57
2022-09-14T07:14:14.442Z,18.55
2022-09-14T07:15:14.429Z,18.57
2022-09-14T07:16:14.416Z,18.55
2022-09-14T07:17:14.408Z,18.55
2022-09-14T07:18:14.397Z,18.57
2022-09-14T07:19:14.380Z,18.57
2022-09-14T07:20:14.360Z,18.55
2022-09-14T07:21:14.354Z,18.57
2022-09-14T07:22:14.379Z,18.55
2022-09-14T07:23:14.325Z,18.55
2022-09-14T07:24:14.322Z,18.57
2022-09-14T07:25:14.298Z,18.55
2022-09-14T07:26:14.281Z,18.57
2022-09-14T07:27:14.312Z,18.55
2022-09-14T07:28:14.292Z,18.55
2022-09-14T07:29:14.281Z,18.55
2022-09-14T07:30:14.240Z,18.55
2022-09-14T07:31:14.299Z,18.55
2022-09-14T07:32:14.302Z,18.54
2022-09-14T07:33:14.189Z,18.54
2022-09-14T07:34:14.183Z,18.54
2022-09-14T07:35:14.166Z,18.54
2022-09-14T07:36:14.182Z,18.55
2022-09-14T07:37:14.163Z,18.54
2022-09-14T07:38:14.135Z,18.54
2022-09-14T07:39:14.108Z,18.52
2022-09-14T07:40:14.185Z,18.50
2022-09-14T07:41:14.111Z,18.52
2022-09-14T07:42:14.072Z,18.50
2022-09-14T07:43:14.058Z,18.50
2022-09-14T07:44:14.043Z,18.50
2022-09-14T07:45:14.144Z,18.50
2022-09-14T07:46:14.186Z,18.50
2022-09-14T07:47:14.013Z,18.52
2022-09-14T07:48:13.992Z,18.52
2022-09-14T07:49:13.985Z,18.54
2022-09-14T07:50:13.971Z,18.52
2022-09-14T07:51:13.957Z,18.52
2022-09-14T07:52:13.941Z,18.54
2022-09-14T07:53:13.926Z,18.52
2022-09-14T07:54:13.920Z,18.54
2022-09-14T07:55:13.902Z,18.54
2022-09-14T07:56:13.888Z,18.52
2022-09-14T07:57:13.875Z,18.54
2022-09-14T07:58:13.857Z,18.54
2022-09-14T08:00:14.871Z,18.52
2022-09-14T08:01:14.028Z,18.52
2022-09-14T08:02:13.869Z,18.50
2022-09-14T08:03:13.792Z,18.52
2022-09-14T08:04:13.793Z,18.52
2022-09-14T08:05:48.719Z,18.54
2022-09-14T08:06:48.706Z,18.50
2022-09-14T08:07:48.692Z,18.50
2022-09-14T08:08:54.683Z,18.50
2022-09-14T08:09:48.665Z,18.50
2022-09-14T08:10:48.650Z,18.49
2022-09-14T08:11:48.697Z,18.50
2022-09-14T08:12:48.624Z,18.46
2022-09-14T08:13:48.611Z,18.49
2022-09-14T08:14:48.594Z,18.47
2022-09-14T08:15:48.586Z,18.49
2022-09-14T08:16:48.686Z,18.47
2022-09-14T08:17:48.556Z,18.49
2022-09-14T08:18:48.620Z,18.49
2022-09-14T08:19:48.531Z,18.47
2022-09-14T08:20:48.515Z,18.49
2022-09-14T08:21:48.614Z,18.50
2022-09-14T08:22:48.488Z,18.52
2022-09-14T08:23:48.481Z,18.50
2022-09-14T08:24:48.460Z,18.50
2022-09-14T08:25:48.449Z,18.49
2022-09-14T08:26:48.437Z,18.44
2022-09-14T08:27:48.423Z,18.44
2022-09-14T08:28:48.489Z,18.46
2022-09-14T08:29:48.396Z,18.49
2022-09-14T08:31:57.565Z,18.52
2022-09-14T08:33:01.683Z,18.50
2022-09-14T08:33:57.262Z,18.49
2022-09-14T08:34:57.245Z,18.50
2022-09-14T08:35:58.297Z,18.50
2022-09-14T08:36:57.219Z,18.50
2022-09-14T08:37:57.203Z,18.50
2022-09-14T08:38:57.191Z,18.50
2022-09-14T08:39:57.288Z,18.50
2022-09-14T08:40:57.165Z,18.50
2022-09-14T08:41:57.153Z,18.52
2022-09-14T08:42:57.140Z,18.52
2022-09-14T08:43:57.127Z,18.54
2022-09-14T08:44:57.113Z,18.55
2022-09-14T08:45:57.141Z,18.54
2022-09-14T08:46:57.087Z,18.55
2022-09-14T08:47:57.096Z,18.55
2022-09-14T08:48:57.061Z,18.55
2022-09-14T08:49:57.054Z,18.54
2022-09-14T08:50:57.039Z,18.54
2022-09-14T08:51:57.022Z,18.54
2022-09-14T08:52:57.013Z,18.54
2022-09-14T08:53:56.998Z,18.55
2022-09-14T08:54:56.991Z,18.54
2022-09-14T08:55:56.972Z,18.54
2022-09-14T08:56:56.960Z,18.54
2022-09-14T08:57:56.945Z,18.55
2022-09-14T08:58:56.935Z,18.52
2022-09-14T08:59:56.920Z,18.54
2022-09-14T09:00:56.978Z,18.55
2022-09-14T09:01:56.894Z,18.54
2022-09-14T09:02:56.882Z,18.55
2022-09-14T09:03:56.978Z,18.54
2022-09-14T09:04:56.858Z,18.54
2022-09-14T09:05:56.843Z,18.54
2022-09-14T09:06:56.834Z,18.54
2022-09-14T09:07:56.818Z,18.54
2022-09-14T09:08:56.805Z,18.54
2022-09-14T09:09:56.792Z,18.52
2022-09-14T09:10:56.780Z,18.54
2022-09-14T09:11:56.763Z,18.52
2022-09-14T09:12:56.754Z,18.55
2022-09-14T09:13:56.737Z,18.55
2022-09-14T09:14:56.727Z,18.55
2022-09-14T09:15:56.760Z,18.54
2022-09-14T09:16:56.703Z,18.55
2022-09-14T09:17:56.692Z,18.57
2022-09-14T09:18:56.677Z,18.55
2022-09-14T09:19:56.777Z,18.55
2022-09-14T09:20:56.652Z,18.57
2022-09-14T09:21:56.640Z,18.55
2022-09-14T09:22:56.628Z,18.55
2022-09-14T09:23:56.612Z,18.55
2022-09-14T09:24:56.600Z,18.57
2022-09-14T09:25:56.586Z,18.55
2022-09-14T09:26:56.577Z,18.55
2022-09-14T09:27:56.560Z,18.55
2022-09-14T09:28:56.551Z,18.55
2022-09-14T09:29:56.535Z,18.57
2022-09-14T09:30:56.523Z,18.55
2022-09-14T09:31:56.596Z,18.57
2022-09-14T09:32:56.498Z,18.57
2022-09-14T09:33:56.486Z,18.55
2022-09-14T09:34:56.473Z,18.55
2022-09-14T09:35:56.482Z,18.55
2022-09-14T09:36:56.447Z,18.55
2022-09-14T09:37:56.431Z,18.55
2022-09-14T09:38:56.420Z,18.54
2022-09-14T09:39:56.573Z,18.54
2022-09-14T09:40:56.394Z,18.52
2022-09-14T09:41:56.383Z,18.54
2022-09-14T09:42:56.368Z,18.54
2022-09-14T09:43:56.362Z,18.52
2022-09-14T09:45:01.316Z,18.54
2022-09-14T09:45:57.367Z,18.52
2022-09-14T09:46:56.372Z,18.50
2022-09-14T09:47:56.303Z,18.52
2022-09-14T09:48:56.293Z,18.52
2022-09-14T09:49:56.278Z,18.50
2022-09-14T09:50:56.267Z,18.50
2022-09-14T09:51:56.360Z,18.50
2022-09-14T09:52:56.240Z,18.49
2022-09-14T09:53:56.224Z,18.50
2022-09-14T09:54:56.213Z,18.52
2022-09-14T09:55:56.201Z,18.50
2022-09-14T09:56:56.189Z,18.50
2022-09-14T09:57:56.172Z,18.50
2022-09-14T09:58:56.164Z,18.50
2022-09-14T09:59:56.147Z,18.49
2022-09-14T10:00:56.212Z,18.50
2022-09-14T10:01:56.170Z,18.50
2022-09-14T10:02:56.116Z,18.50
2022-09-14T10:03:56.097Z,18.49
2022-09-14T10:04:56.087Z,18.50
2022-09-14T10:06:02.094Z,18.50
2022-09-14T10:07:02.176Z,18.49
2022-09-14T10:07:56.061Z,18.50
2022-09-14T10:09:30.988Z,18.50
2022-09-14T10:10:30.975Z,18.49
2022-09-14T10:11:30.962Z,18.50
2022-09-14T10:12:30.948Z,18.49
2022-09-14T10:13:33.438Z,18.49
2022-09-14T10:14:32.922Z,18.50
2022-09-14T10:15:30.904Z,18.49
2022-09-14T10:16:30.996Z,18.50
2022-09-14T10:17:30.877Z,18.52
2022-09-14T10:18:30.866Z,18.52
2022-09-14T10:19:30.953Z,18.50
2022-09-14T10:20:30.995Z,18.52
2022-09-14T10:21:30.875Z,18.52
2022-09-14T10:22:30.901Z,18.52
2022-09-14T10:23:30.804Z,18.50
2022-09-14T10:24:30.787Z,18.52
2022-09-14T10:25:30.774Z,18.52
2022-09-14T10:26:30.759Z,18.52
2022-09-14T10:27:34.316Z,18.50
2022-09-14T10:28:31.776Z,18.52
2022-09-14T10:29:30.722Z,18.54
2022-09-14T10:30:30.707Z,18.52
2022-09-14T10:31:30.725Z,18.52
2022-09-14T10:32:30.682Z,18.50
2022-09-14T10:33:30.671Z,18.50
2022-09-14T10:34:30.655Z,18.50
2022-09-14T10:35:30.645Z,18.50
2022-09-14T10:36:30.644Z,18.52
2022-09-14T10:37:30.637Z,18.50
2022-09-14T10:38:30.715Z,18.52
2022-09-14T10:39:30.592Z,18.50
2022-09-14T10:40:30.658Z,18.50
2022-09-14T10:41:36.574Z,18.50
2022-09-14T10:42:30.554Z,18.49
2022-09-14T10:43:30.539Z,18.50
2022-09-14T10:44:30.527Z,18.49
2022-09-14T10:45:30.511Z,18.50
2022-09-14T10:46:30.576Z,18.50
2022-09-14T10:47:30.485Z,18.50
2022-09-14T10:48:30.475Z,18.50
2022-09-14T10:49:30.459Z,18.50
2022-09-14T10:50:30.450Z,18.50
2022-09-14T10:51:30.434Z,18.50
2022-09-14T10:52:30.423Z,18.50
2022-09-14T10:53:30.408Z,18.49
2022-09-14T10:54:30.428Z,18.50
2022-09-14T10:55:30.384Z,18.50
2022-09-14T10:56:30.375Z,18.49
2022-09-14T10:57:30.359Z,18.52
2022-09-14T10:58:30.348Z,18.50
2022-09-14T10:59:30.334Z,18.52
2022-09-14T11:00:30.321Z,18.52
2022-09-14T11:01:30.530Z,18.50
2022-09-14T11:02:30.459Z,18.50
2022-09-14T11:03:30.280Z,18.52
2022-09-14T11:04:30.269Z,18.52
2022-09-14T11:05:30.254Z,18.52
2022-09-14T11:06:30.252Z,18.50
2022-09-14T11:07:30.228Z,18.50
2022-09-14T11:08:30.234Z,18.52
2022-09-14T11:09:30.202Z,18.52
2022-09-14T11:10:30.214Z,18.50
2022-09-14T11:11:30.178Z,18.50
2022-09-14T11:12:30.166Z,18.50
2022-09-14T11:13:30.152Z,18.52
2022-09-14T11:14:30.141Z,18.52
2022-09-14T11:15:30.133Z,18.50
2022-09-14T11:16:30.231Z,18.50
2022-09-14T11:17:30.102Z,18.50
2022-09-14T11:18:30.088Z,18.50
2022-09-14T11:19:30.073Z,18.52
2022-09-14T11:20:30.062Z,18.50
2022-09-14T11:21:30.048Z,18.50
2022-09-14T11:22:30.036Z,18.50
2022-09-14T11:23:30.023Z,18.49
2022-09-14T11:24:30.009Z,18.49
2022-09-14T11:25:29.997Z,18.50
2022-09-14T11:26:30.093Z,18.49
2022-09-14T11:27:29.977Z,18.50
2022-09-14T11:28:29.982Z,18.49
2022-09-14T11:29:29.945Z,18.49
2022-09-14T11:30:29.932Z,18.49
2022-09-14T11:31:29.962Z,18.47
2022-09-14T11:32:29.905Z,18.49
2022-09-14T11:33:31.391Z,18.47
2022-09-14T11:34:29.881Z,18.46
2022-09-14T11:35:29.867Z,18.49
2022-09-14T11:36:29.855Z,18.47
2022-09-14T11:37:29.840Z,18.47
2022-09-14T11:38:29.830Z,18.47
2022-09-14T11:39:29.818Z,18.47
2022-09-14T11:40:29.893Z,18.47
2022-09-14T11:41:29.790Z,18.46
2022-09-14T11:42:29.805Z,18.47
2022-09-14T11:43:29.765Z,18.46
2022-09-14T11:44:29.754Z,18.46
2022-09-14T11:45:29.740Z,18.46
2022-09-14T11:46:29.752Z,18.44
2022-09-14T11:47:29.715Z,18.46
2022-09-14T11:48:45.145Z,18.46
2022-09-14T11:49:30.728Z,18.44
2022-09-14T11:50:29.677Z,18.46
2022-09-14T11:51:29.663Z,18.46
2022-09-14T11:52:29.652Z,18.47
2022-09-14T11:53:29.640Z,18.46
2022-09-14T11:54:29.624Z,18.47
2022-09-14T11:55:29.611Z,18.47
2022-09-14T11:56:29.596Z,18.49
2022-09-14T11:57:29.585Z,18.49
2022-09-14T11:58:29.596Z,18.47
2022-09-14T11:59:29.560Z,18.49
2022-09-14T12:00:29.548Z,18.47
2022-09-14T12:01:29.535Z,18.47
2022-09-14T12:02:29.592Z,18.47
2022-09-14T12:03:29.687Z,18.46
2022-09-14T12:04:29.498Z,18.49
2022-09-14T12:05:29.487Z,18.47
2022-09-14T12:06:29.495Z,18.49
2022-09-14T12:07:29.497Z,18.49
2022-09-14T12:08:29.447Z,18.47
2022-09-14T12:09:29.516Z,18.49
2022-09-14T12:10:29.421Z,18.46
2022-09-14T12:11:29.407Z,18.47
2022-09-14T12:12:29.406Z,18.46
2022-09-14T12:13:29.451Z,18.46
2022-09-14T12:14:29.391Z,18.44
2022-09-14T12:15:29.417Z,18.46
2022-09-14T12:16:33.943Z,18.46
2022-09-14T12:17:39.571Z,18.46
2022-09-14T12:18:29.339Z,18.47
2022-09-14T12:19:29.314Z,18.47
2022-09-14T12:20:29.318Z,18.42
2022-09-14T12:21:29.296Z,18.40
2022-09-14T12:22:29.265Z,18.39
2022-09-14T12:23:29.278Z,18.30
2022-09-14T12:24:29.248Z,18.34
2022-09-14T12:25:29.256Z,18.36
2022-09-14T12:26:29.213Z,18.37
2022-09-14T12:27:29.194Z,18.37
2022-09-14T12:28:29.182Z,18.36
2022-09-14T12:29:29.167Z,18.34
2022-09-14T12:30:29.181Z,18.36
2022-09-14T12:31:29.183Z,18.37
2022-09-14T12:32:29.145Z,18.39
2022-09-14T12:33:29.166Z,18.40
2022-09-14T12:34:29.135Z,18.42
2022-09-14T12:35:29.143Z,18.43
2022-09-14T12:36:29.077Z,18.42
2022-09-14T12:37:29.086Z,18.43
2022-09-14T12:38:29.074Z,18.43
2022-09-14T12:39:29.044Z,18.42
2022-09-14T12:40:29.229Z,18.42
2022-09-14T12:41:29.032Z,18.42
2022-09-14T12:42:29.019Z,18.43
2022-09-14T12:43:28.987Z,18.42
2022-09-14T12:44:28.975Z,18.42
2022-09-14T12:45:29.010Z,18.43
2022-09-14T12:46:29.078Z,18.43
2022-09-14T12:47:29.010Z,18.43
2022-09-14T12:48:28.953Z,18.43
2022-09-14T12:49:28.910Z,18.43
2022-09-14T12:50:28.912Z,18.42
2022-09-14T12:51:28.967Z,18.42
2022-09-14T12:52:28.880Z,18.43
2022-09-14T12:53:28.877Z,18.42
2022-09-14T12:54:28.939Z,18.43
2022-09-14T12:55:28.835Z,18.43